Terminal Aerodrome Forecast
Issued by NWS Wilmington, NC

Home | Current Version | Previous Version | Text Only | Print | Product List | Glossary On
Versions: 1 2 3 4 5 6 7 8 9 10 11 12 13 14 15 16 17 18 19 20 21 22
000
FTUS42 KILM 010540
TAFLBT
TAF
KLBT 010540Z 0106/0206 00000KT 3SM BR SCT050
      TEMPO 0106/0110 1SM BR BKN002
     FM011100 00000KT 4SM BR SKC
     FM011300 25004KT P6SM SCT035
     FM020300 00000KT 4SM BR BKN100=

USA.gov is the U.S. government's official web portal to all federal, state and local government web resources and services.